createdAt,value
2017-08-27T00:00:33.690Z,29.35
2017-08-27T00:03:01.190Z,27.62
2017-08-27T00:05:28.706Z,28.12
2017-08-27T00:07:56.244Z,25.55
2017-08-27T00:10:23.721Z,25.67
2017-08-27T00:12:51.245Z,26.95
2017-08-27T00:15:18.748Z,26.12
2017-08-27T00:17:46.254Z,28.65
2017-08-27T00:20:13.754Z,27.67
2017-08-27T00:22:41.258Z,25.55
2017-08-27T00:25:08.766Z,28.98
2017-08-27T00:27:36.269Z,27.92
2017-08-27T00:30:07.636Z,27.48
2017-08-27T00:32:36.968Z,26.55
2017-08-27T00:35:04.486Z,25.70
2017-08-27T00:37:32.008Z,27.48
2017-08-27T00:40:00.335Z,26.80
2017-08-27T00:42:28.101Z,25.95
2017-08-27T00:44:55.751Z,25.35
2017-08-27T00:47:23.282Z,24.42
2017-08-27T00:49:50.804Z,25.12
2017-08-27T00:52:18.327Z,23.75
2017-08-27T00:54:45.855Z,24.02
2017-08-27T00:57:13.375Z,26.92
2017-08-27T00:59:40.919Z,27.65
2017-08-27T01:02:08.575Z,25.17
2017-08-27T01:04:36.239Z,28.50
2017-08-27T01:07:03.752Z,25.58
2017-08-27T01:09:31.247Z,26.45
2017-08-27T01:11:58.775Z,26.25
2017-08-27T01:14:26.319Z,26.23
2017-08-27T01:16:53.830Z,26.95
2017-08-27T01:19:21.418Z,27.37
2017-08-27T01:21:49.086Z,27.67
2017-08-27T01:24:16.579Z,31.25
2017-08-27T01:26:44.066Z,29.42
2017-08-27T01:29:11.865Z,31.30
2017-08-27T01:31:39.494Z,29.60
2017-08-27T01:34:07.164Z,27.67
2017-08-27T01:36:34.735Z,26.35
2017-08-27T01:39:02.400Z,28.05
2017-08-27T01:41:29.967Z,30.42
2017-08-27T01:43:57.602Z,25.85
2017-08-27T01:46:25.198Z,28.92
2017-08-27T01:48:52.929Z,27.62
2017-08-27T01:51:20.512Z,31.20
2017-08-27T01:53:48.148Z,30.27
2017-08-27T01:56:15.727Z,29.05
2017-08-27T01:58:43.395Z,27.13
2017-08-27T02:01:10.904Z,27.52
2017-08-27T02:03:38.411Z,27.87
2017-08-27T02:06:06.152Z,27.15
2017-08-27T02:08:33.708Z,25.88
2017-08-27T02:11:01.273Z,23.27
2017-08-27T02:13:28.841Z,25.45
2017-08-27T02:15:56.405Z,23.17
2017-08-27T02:18:24.053Z,23.17
2017-08-27T02:20:51.624Z,23.67
2017-08-27T02:23:19.122Z,25.85
2017-08-27T02:25:46.682Z,25.12
2017-08-27T02:28:14.204Z,26.92
2017-08-27T02:30:41.867Z,24.75
2017-08-27T02:33:09.391Z,22.83
2017-08-27T02:35:37.084Z,25.30
2017-08-27T02:38:04.748Z,23.95
2017-08-27T02:40:32.426Z,25.83
2017-08-27T02:43:00.090Z,25.48
2017-08-27T02:45:27.751Z,25.30
2017-08-27T02:47:55.261Z,24.02
2017-08-27T02:50:22.760Z,27.45
2017-08-27T02:52:50.268Z,27.15
2017-08-27T02:55:17.806Z,26.48
2017-08-27T02:57:45.435Z,27.83
2017-08-27T03:00:13.130Z,27.02
2017-08-27T03:02:40.609Z,25.98
2017-08-27T03:05:08.216Z,26.17
2017-08-27T03:07:35.736Z,26.23
2017-08-27T03:10:03.270Z,28.08
2017-08-27T03:12:30.799Z,25.80
2017-08-27T03:14:58.316Z,26.02
2017-08-27T03:17:26.126Z,24.42
2017-08-27T03:19:53.608Z,25.42
2017-08-27T03:22:21.121Z,26.80
2017-08-27T03:24:48.639Z,27.08
2017-08-27T03:27:16.151Z,26.62
2017-08-27T03:29:43.707Z,25.37
2017-08-27T03:32:11.222Z,27.35
2017-08-27T03:34:38.816Z,27.23
2017-08-27T03:37:06.300Z,27.35
2017-08-27T03:39:33.927Z,29.52
2017-08-27T03:42:01.453Z,28.35
2017-08-27T03:44:28.983Z,27.70
2017-08-27T03:46:56.539Z,30.45
2017-08-27T03:49:24.104Z,29.08
2017-08-27T03:51:51.640Z,27.23
2017-08-27T03:54:19.157Z,26.20
2017-08-27T03:56:46.783Z,31.60
2017-08-27T03:59:14.549Z,29.85
2017-08-27T04:01:42.198Z,34.28
2017-08-27T04:04:09.696Z,33.35
2017-08-27T04:06:37.195Z,34.72
2017-08-27T04:09:04.713Z,34.90
2017-08-27T04:11:32.271Z,34.95
2017-08-27T04:13:59.779Z,33.38
2017-08-27T04:16:27.359Z,31.77
2017-08-27T04:18:54.876Z,30.50
2017-08-27T04:21:22.489Z,26.75
2017-08-27T04:23:50.150Z,34.88
2017-08-27T04:26:17.673Z,37.25
2017-08-27T04:28:45.178Z,37.70
2017-08-27T04:31:12.750Z,32.80
2017-08-27T04:33:40.382Z,35.13
2017-08-27T04:36:07.946Z,36.22
2017-08-27T04:38:35.541Z,40.08
2017-08-27T04:41:03.179Z,40.90
2017-08-27T04:43:30.833Z,35.22
2017-08-27T04:45:58.493Z,38.30
2017-08-27T04:48:26.171Z,37.38
2017-08-27T04:50:53.819Z,36.17
2017-08-27T04:53:21.337Z,38.60
2017-08-27T04:55:48.835Z,38.67
2017-08-27T04:58:16.351Z,37.65
2017-08-27T05:00:43.864Z,38.38
2017-08-27T05:03:11.372Z,40.83
2017-08-27T05:05:38.962Z,38.17
2017-08-27T05:08:06.470Z,38.53
2017-08-27T05:10:33.989Z,41.92
2017-08-27T05:13:01.757Z,40.03
2017-08-27T05:15:29.355Z,40.58
2017-08-27T05:17:57.110Z,36.25
2017-08-27T05:20:24.748Z,34.97
2017-08-27T05:22:52.320Z,23.90
2017-08-27T05:25:20.087Z,38.38
2017-08-27T05:27:47.715Z,26.73
2017-08-27T05:30:15.204Z,24.95
2017-08-27T05:32:42.718Z,36.42
2017-08-27T05:35:10.220Z,29.45
2017-08-27T05:37:37.722Z,36.90
2017-08-27T05:40:05.253Z,33.63
2017-08-27T05:42:32.760Z,34.10
2017-08-27T05:45:00.272Z,31.77
2017-08-27T05:47:27.792Z,26.73
2017-08-27T05:49:55.296Z,29.90
2017-08-27T05:52:22.806Z,27.45
2017-08-27T05:54:50.321Z,27.02
2017-08-27T05:57:17.825Z,25.05
2017-08-27T05:59:45.330Z,24.20
2017-08-27T06:02:12.826Z,25.23
2017-08-27T06:04:40.633Z,23.62
2017-08-27T06:07:08.316Z,25.48
2017-08-27T06:09:35.960Z,26.05
2017-08-27T06:12:03.493Z,23.30
2017-08-27T06:14:31.175Z,20.17
2017-08-27T06:16:58.833Z,24.05
2017-08-27T06:19:26.604Z,21.83
2017-08-27T06:21:54.130Z,24.20
2017-08-27T06:24:21.645Z,23.50
2017-08-27T06:26:49.191Z,22.98
2017-08-27T06:29:16.677Z,24.05
2017-08-27T06:31:44.195Z,25.95
2017-08-27T06:34:11.697Z,26.25
2017-08-27T06:36:39.228Z,21.00
2017-08-27T06:39:06.761Z,27.75
2017-08-27T06:41:34.275Z,27.58
2017-08-27T06:44:01.826Z,27.33
2017-08-27T06:46:29.318Z,23.90
2017-08-27T06:48:56.854Z,25.52
2017-08-27T06:51:24.359Z,28.80
2017-08-27T06:53:51.869Z,25.65
2017-08-27T06:56:19.375Z,23.65
2017-08-27T06:58:46.885Z,22.08
2017-08-27T07:01:14.387Z,23.83
2017-08-27T07:03:41.955Z,21.35
2017-08-27T07:06:09.432Z,22.15
2017-08-27T07:08:36.932Z,21.92
2017-08-27T07:11:04.440Z,21.40
2017-08-27T07:13:31.927Z,21.60
2017-08-27T07:15:59.458Z,20.20
2017-08-27T07:18:27.005Z,21.50
2017-08-27T07:20:54.506Z,21.15
2017-08-27T07:23:22.020Z,19.30
2017-08-27T07:25:49.537Z,19.12
2017-08-27T07:28:17.043Z,20.12
2017-08-27T07:30:44.549Z,18.20
2017-08-27T07:33:12.096Z,18.35
2017-08-27T07:35:39.609Z,16.62
2017-08-27T07:38:07.096Z,18.45
2017-08-27T07:40:34.597Z,18.10
2017-08-27T07:43:02.132Z,17.23
2017-08-27T07:45:30.613Z,16.75
2017-08-27T07:47:58.153Z,15.30
2017-08-27T07:50:25.689Z,17.87
2017-08-27T07:52:53.183Z,17.00
2017-08-27T07:55:20.697Z,17.62
2017-08-27T07:57:48.205Z,17.00
2017-08-27T08:00:15.701Z,14.52
2017-08-27T08:02:43.197Z,16.42
2017-08-27T08:05:10.734Z,13.00
2017-08-27T08:07:38.304Z,12.73
2017-08-27T08:10:05.811Z,12.68
2017-08-27T08:12:33.333Z,13.10
2017-08-27T08:15:00.823Z,14.55
2017-08-27T08:17:28.334Z,14.35
2017-08-27T08:19:55.832Z,11.57
2017-08-27T08:22:23.339Z,13.65
2017-08-27T08:24:51.171Z,12.60
2017-08-27T08:27:18.685Z,10.75
2017-08-27T08:29:46.271Z,10.75
2017-08-27T08:32:13.817Z,12.93
2017-08-27T08:34:41.315Z,12.15
2017-08-27T08:37:08.837Z,11.48
2017-08-27T08:39:36.342Z,11.60
2017-08-27T08:42:03.851Z,10.38
2017-08-27T08:44:31.377Z,11.12
2017-08-27T08:46:58.878Z,11.05
2017-08-27T08:49:26.386Z,11.07
2017-08-27T08:51:53.918Z,9.85
2017-08-27T08:54:21.459Z,12.07
2017-08-27T08:56:52.147Z,11.57
2017-08-27T08:59:19.651Z,11.25
2017-08-27T09:01:47.219Z,10.50
2017-08-27T09:04:14.716Z,12.07
2017-08-27T09:06:42.248Z,9.30
2017-08-27T09:09:09.825Z,11.20
2017-08-27T09:11:37.342Z,9.43
2017-08-27T09:14:04.873Z,10.02
2017-08-27T09:16:32.369Z,8.13
2017-08-27T09:18:59.876Z,9.88
2017-08-27T09:21:27.822Z,7.97
2017-08-27T09:23:55.306Z,6.80
2017-08-27T09:26:22.806Z,9.10
2017-08-27T09:28:50.301Z,7.40
2017-08-27T09:31:17.834Z,5.78
2017-08-27T09:33:45.716Z,8.18
2017-08-27T09:36:13.225Z,7.20
2017-08-27T09:38:40.723Z,8.35
2017-08-27T09:41:08.317Z,8.75
2017-08-27T09:43:35.816Z,9.50
2017-08-27T09:46:03.335Z,8.40
2017-08-27T09:48:30.851Z,9.50
2017-08-27T09:50:58.390Z,8.07
2017-08-27T09:53:25.889Z,7.80
2017-08-27T09:55:53.420Z,7.82
2017-08-27T09:58:20.937Z,8.40
2017-08-27T10:00:48.486Z,8.57
2017-08-27T10:03:16.019Z,7.75
2017-08-27T10:05:43.516Z,7.75
2017-08-27T10:08:11.019Z,7.28
2017-08-27T10:10:38.546Z,7.55
2017-08-27T10:13:06.054Z,8.10
2017-08-27T10:15:33.651Z,8.30
2017-08-27T10:18:01.260Z,7.43
2017-08-27T10:20:28.768Z,5.18
2017-08-27T10:22:56.296Z,7.28
2017-08-27T10:25:23.837Z,7.10
2017-08-27T10:27:51.360Z,6.53
2017-08-27T10:30:18.879Z,5.20
2017-08-27T10:32:46.428Z,6.57
2017-08-27T10:35:13.936Z,5.72
2017-08-27T10:37:41.455Z,4.45
2017-08-27T10:40:08.992Z,4.40
2017-08-27T10:42:36.488Z,4.32
2017-08-27T10:45:04.017Z,5.87
2017-08-27T10:47:31.507Z,4.45
2017-08-27T10:49:59.021Z,4.62
2017-08-27T10:52:26.548Z,4.70
2017-08-27T10:54:54.107Z,5.12
2017-08-27T10:57:21.628Z,5.30
2017-08-27T10:59:49.173Z,3.92
2017-08-27T11:02:16.718Z,5.10
2017-08-27T11:04:44.281Z,5.22
2017-08-27T11:07:11.888Z,5.32
2017-08-27T11:09:39.439Z,4.43
2017-08-27T11:12:06.946Z,4.65
2017-08-27T11:14:34.587Z,4.22
2017-08-27T11:17:02.442Z,4.00
2017-08-27T11:19:29.950Z,3.90
2017-08-27T11:21:57.458Z,3.78
2017-08-27T11:24:24.986Z,4.18
2017-08-27T11:26:52.561Z,4.05
2017-08-27T11:29:20.218Z,4.15
2017-08-27T11:31:47.709Z,4.20
2017-08-27T11:34:15.232Z,3.28
2017-08-27T11:36:42.741Z,2.80
2017-08-27T11:39:10.289Z,4.10
2017-08-27T11:41:37.826Z,2.53
2017-08-27T11:44:05.367Z,3.20
2017-08-27T11:46:32.899Z,3.22
2017-08-27T11:49:00.441Z,3.22
2017-08-27T11:51:27.937Z,3.25
2017-08-27T11:53:55.484Z,2.78
2017-08-27T11:56:23.010Z,2.78
2017-08-27T11:58:50.511Z,3.03
2017-08-27T12:01:18.014Z,3.17
2017-08-27T12:03:45.530Z,2.45
2017-08-27T12:06:13.058Z,2.85
2017-08-27T12:08:40.577Z,2.65
2017-08-27T12:11:08.084Z,2.00
2017-08-27T12:13:35.636Z,1.77
2017-08-27T12:16:03.140Z,2.10
2017-08-27T12:18:31.366Z,1.80
2017-08-27T12:20:58.891Z,2.10
2017-08-27T12:23:26.396Z,2.10
2017-08-27T12:25:53.888Z,2.25
2017-08-27T12:28:21.409Z,2.53
2017-08-27T12:30:48.963Z,2.50
2017-08-27T12:33:16.531Z,1.90
2017-08-27T12:35:45.564Z,2.15
2017-08-27T12:38:13.060Z,2.15
2017-08-27T12:40:40.588Z,2.25
2017-08-27T12:43:08.090Z,1.58
2017-08-27T12:45:35.627Z,2.78
2017-08-27T12:48:03.126Z,2.45
2017-08-27T12:50:30.637Z,2.62
2017-08-27T12:52:58.143Z,2.55
2017-08-27T12:55:25.667Z,2.75
2017-08-27T12:57:53.185Z,2.70
2017-08-27T13:00:20.710Z,2.40
2017-08-27T13:02:48.289Z,2.10
2017-08-27T13:05:15.817Z,2.30
2017-08-27T13:07:43.335Z,2.53
2017-08-27T13:10:10.875Z,3.30
2017-08-27T13:12:38.374Z,2.72
2017-08-27T13:15:05.883Z,3.12
2017-08-27T13:17:33.419Z,2.95
2017-08-27T13:20:00.984Z,4.32
2017-08-27T13:22:28.492Z,4.97
2017-08-27T13:24:55.999Z,2.70
2017-08-27T13:27:23.506Z,2.25
2017-08-27T13:29:51.005Z,2.90
2017-08-27T13:32:19.470Z,2.90
2017-08-27T13:34:46.975Z,1.75
2017-08-27T13:37:14.486Z,2.47
2017-08-27T13:39:42.007Z,3.37
2017-08-27T13:42:09.489Z,2.40
2017-08-27T13:44:37.018Z,2.50
2017-08-27T13:47:04.534Z,2.33
2017-08-27T13:49:32.038Z,2.25
2017-08-27T13:51:59.616Z,2.15
2017-08-27T13:54:27.124Z,2.20
2017-08-27T13:56:54.645Z,1.60
2017-08-27T13:59:22.138Z,2.00
2017-08-27T14:01:49.646Z,2.45
2017-08-27T14:04:17.218Z,3.17
2017-08-27T14:06:44.736Z,1.75
2017-08-27T14:09:12.242Z,1.95
2017-08-27T14:11:39.748Z,2.12
2017-08-27T14:14:07.948Z,1.40
2017-08-27T14:16:35.476Z,1.75
2017-08-27T14:19:03.007Z,2.20
2017-08-27T14:21:30.543Z,2.37
2017-08-27T14:23:58.226Z,2.15
2017-08-27T14:26:25.785Z,2.00
2017-08-27T14:28:53.332Z,1.83
2017-08-27T14:31:20.838Z,2.55
2017-08-27T14:33:48.341Z,2.10
2017-08-27T14:36:15.835Z,1.20
2017-08-27T14:38:43.448Z,1.85
2017-08-27T14:41:10.970Z,1.42
2017-08-27T14:43:38.469Z,1.90
2017-08-27T14:46:06.077Z,1.30
2017-08-27T14:48:33.599Z,1.58
2017-08-27T14:51:01.208Z,1.62
2017-08-27T14:53:28.817Z,2.00
2017-08-27T14:55:56.356Z,1.65
2017-08-27T14:58:23.877Z,1.62
2017-08-27T15:00:51.782Z,1.65
2017-08-27T15:03:19.299Z,1.70
2017-08-27T15:05:46.823Z,1.20
2017-08-27T15:08:14.413Z,1.48
2017-08-27T15:10:41.918Z,1.30
2017-08-27T15:13:09.466Z,1.30
2017-08-27T15:15:36.980Z,1.73
2017-08-27T15:18:04.505Z,1.40
2017-08-27T15:20:32.109Z,1.20
2017-08-27T15:22:59.649Z,1.70
2017-08-27T15:25:27.137Z,1.62
2017-08-27T15:27:54.691Z,1.70
2017-08-27T15:30:22.285Z,1.20
2017-08-27T15:32:49.779Z,2.10
2017-08-27T15:35:17.339Z,1.40
2017-08-27T15:37:44.914Z,1.50
2017-08-27T15:40:12.588Z,1.73
2017-08-27T15:42:40.120Z,1.60
2017-08-27T15:45:07.635Z,1.60
2017-08-27T15:47:35.213Z,1.45
2017-08-27T15:50:02.716Z,2.30
2017-08-27T15:52:30.277Z,1.40
2017-08-27T15:54:57.875Z,1.80
2017-08-27T15:57:25.395Z,2.15
2017-08-27T15:59:52.995Z,1.62
2017-08-27T16:02:20.545Z,1.85
2017-08-27T16:04:48.104Z,1.50
2017-08-27T16:07:15.690Z,1.90
2017-08-27T16:09:43.180Z,1.70
2017-08-27T16:12:10.699Z,1.80
2017-08-27T16:14:38.228Z,1.70
2017-08-27T16:17:05.795Z,1.70
2017-08-27T16:19:33.329Z,1.52
2017-08-27T16:22:00.852Z,1.65
2017-08-27T16:24:28.469Z,1.50
2017-08-27T16:26:55.983Z,1.75
2017-08-27T16:29:23.471Z,2.00
2017-08-27T16:31:51.003Z,1.55
2017-08-27T16:34:18.544Z,1.75
2017-08-27T16:36:46.108Z,1.95
2017-08-27T16:39:13.626Z,1.42
2017-08-27T16:41:41.120Z,2.05
2017-08-27T16:44:08.665Z,2.58
2017-08-27T16:46:36.161Z,2.40
2017-08-27T16:49:03.677Z,1.42
2017-08-27T16:51:31.191Z,2.28
2017-08-27T16:53:58.718Z,1.70
2017-08-27T16:56:26.228Z,1.87
2017-08-27T16:58:53.765Z,1.65
2017-08-27T17:01:21.294Z,1.65
2017-08-27T17:03:48.802Z,2.65
2017-08-27T17:06:16.341Z,1.80
2017-08-27T17:08:43.894Z,1.60
2017-08-27T17:11:11.389Z,2.70
2017-08-27T17:13:38.907Z,1.70
2017-08-27T17:16:06.409Z,1.80
2017-08-27T17:18:33.911Z,1.90
2017-08-27T17:21:01.459Z,2.00
2017-08-27T17:23:28.965Z,2.03
2017-08-27T17:25:56.497Z,2.17
2017-08-27T17:28:24.003Z,1.80
2017-08-27T17:30:51.525Z,1.80
2017-08-27T17:33:19.015Z,2.20
2017-08-27T17:35:46.520Z,1.60
2017-08-27T17:38:14.042Z,2.15
2017-08-27T17:40:41.580Z,2.37
2017-08-27T17:43:09.087Z,1.90
2017-08-27T17:45:36.621Z,1.95
2017-08-27T17:48:04.146Z,3.05
2017-08-27T17:50:31.760Z,2.40
2017-08-27T17:52:59.319Z,3.20
2017-08-27T17:55:26.833Z,3.15
2017-08-27T17:57:54.406Z,7.72
2017-08-27T18:00:21.920Z,3.70
2017-08-27T18:02:49.507Z,2.80
2017-08-27T18:05:17.966Z,1.92
2017-08-27T18:07:45.483Z,2.70
2017-08-27T18:10:13.044Z,3.40
2017-08-27T18:12:40.612Z,3.15
2017-08-27T18:15:09.443Z,3.72
2017-08-27T18:17:37.008Z,3.17
2017-08-27T18:20:04.757Z,2.92
2017-08-27T18:22:32.286Z,3.00
2017-08-27T18:24:59.856Z,3.22
2017-08-27T18:27:27.388Z,2.72
2017-08-27T18:29:54.906Z,3.67
2017-08-27T18:32:22.650Z,3.85
2017-08-27T18:34:50.189Z,3.10
2017-08-27T18:37:17.701Z,3.28
2017-08-27T18:39:45.292Z,3.17
2017-08-27T18:42:12.811Z,3.53
2017-08-27T18:44:40.357Z,6.15
2017-08-27T18:47:07.910Z,10.63
2017-08-27T18:49:35.411Z,2.80
2017-08-27T18:52:02.984Z,3.00
2017-08-27T18:54:31.902Z,2.25
2017-08-27T18:56:59.416Z,2.65
2017-08-27T18:59:28.579Z,2.03
2017-08-27T19:01:58.501Z,2.50
2017-08-27T19:04:27.789Z,2.87
2017-08-27T19:06:55.298Z,9.10
2017-08-27T19:09:22.835Z,4.65
2017-08-27T19:11:50.370Z,2.50
2017-08-27T19:14:17.878Z,2.75
2017-08-27T19:16:45.395Z,2.72
2017-08-27T19:19:12.968Z,2.60
2017-08-27T19:21:40.504Z,2.60
2017-08-27T19:24:08.037Z,2.30
2017-08-27T19:26:35.567Z,3.10
2017-08-27T19:29:03.094Z,2.50
2017-08-27T19:31:30.652Z,2.62
2017-08-27T19:33:58.184Z,2.65
2017-08-27T19:36:25.686Z,2.53
2017-08-27T19:38:53.259Z,2.55
2017-08-27T19:41:20.789Z,2.67
2017-08-27T19:43:48.333Z,3.37
2017-08-27T19:46:16.095Z,2.72
2017-08-27T19:48:43.625Z,2.35
2017-08-27T19:51:11.135Z,2.45
2017-08-27T19:53:38.744Z,3.83
2017-08-27T19:56:06.239Z,3.30
2017-08-27T19:58:33.743Z,3.17
2017-08-27T20:01:01.276Z,2.80
2017-08-27T20:03:28.838Z,3.50
2017-08-27T20:05:56.343Z,3.35
2017-08-27T20:08:23.941Z,2.70
2017-08-27T20:10:51.520Z,2.75
2017-08-27T20:13:19.011Z,3.05
2017-08-27T20:15:46.525Z,3.35
2017-08-27T20:18:14.031Z,2.75
2017-08-27T20:20:41.531Z,3.33
2017-08-27T20:23:09.053Z,3.30
2017-08-27T20:25:36.551Z,3.05
2017-08-27T20:28:04.082Z,3.17
2017-08-27T20:30:31.579Z,3.15
2017-08-27T20:32:59.092Z,2.30
2017-08-27T20:35:26.717Z,3.60
2017-08-27T20:37:54.215Z,5.40
2017-08-27T20:40:21.727Z,3.35
2017-08-27T20:42:49.371Z,3.17
2017-08-27T20:45:16.899Z,5.20
2017-08-27T20:47:44.471Z,3.50
2017-08-27T20:50:12.014Z,2.60
2017-08-27T20:52:40.419Z,3.80
2017-08-27T20:55:08.007Z,3.00
2017-08-27T20:57:35.541Z,3.12
2017-08-27T21:00:03.063Z,3.17
2017-08-27T21:02:30.583Z,5.40
2017-08-27T21:04:58.073Z,2.25
2017-08-27T21:07:25.581Z,4.15
2017-08-27T21:09:53.100Z,2.72
2017-08-27T21:12:20.625Z,2.72
2017-08-27T21:14:48.135Z,3.30
2017-08-27T21:17:15.680Z,2.55
2017-08-27T21:19:43.214Z,5.65
2017-08-27T21:22:10.704Z,3.92
2017-08-27T21:24:38.228Z,5.85
2017-08-27T21:27:05.744Z,2.87
2017-08-27T21:29:33.274Z,2.83
2017-08-27T21:32:00.781Z,3.30
2017-08-27T21:34:28.281Z,2.62
2017-08-27T21:36:55.794Z,2.90
2017-08-27T21:39:23.314Z,3.12
2017-08-27T21:41:50.844Z,2.83
2017-08-27T21:44:18.330Z,2.75
2017-08-27T21:46:45.827Z,2.78
2017-08-27T21:49:13.424Z,2.78
2017-08-27T21:51:40.940Z,2.33
2017-08-27T21:54:08.463Z,3.40
2017-08-27T21:56:35.970Z,2.70
2017-08-27T21:59:03.482Z,3.80
2017-08-27T22:01:30.990Z,3.08
2017-08-27T22:03:58.515Z,2.65
2017-08-27T22:06:26.044Z,3.00
2017-08-27T22:08:53.563Z,2.47
2017-08-27T22:11:21.082Z,2.58
2017-08-27T22:13:48.582Z,2.80
2017-08-27T22:16:16.089Z,3.50
2017-08-27T22:18:43.632Z,2.78
2017-08-27T22:21:11.124Z,2.72
2017-08-27T22:23:38.642Z,3.33
2017-08-27T22:26:06.161Z,3.33
2017-08-27T22:28:33.672Z,2.75
2017-08-27T22:31:01.220Z,2.40
2017-08-27T22:33:28.754Z,2.62
2017-08-27T22:35:56.278Z,2.75
2017-08-27T22:38:23.821Z,3.15
2017-08-27T22:40:51.327Z,3.45
2017-08-27T22:43:18.818Z,2.58
2017-08-27T22:45:46.327Z,2.62
2017-08-27T22:48:13.809Z,3.40
2017-08-27T22:50:41.320Z,3.37
2017-08-27T22:53:08.869Z,3.50
2017-08-27T22:55:36.394Z,3.70
2017-08-27T22:58:03.917Z,3.37
2017-08-27T23:00:31.445Z,4.55
2017-08-27T23:02:58.955Z,3.55
2017-08-27T23:05:26.490Z,3.83
2017-08-27T23:07:54.000Z,3.45
2017-08-27T23:10:21.549Z,3.50
2017-08-27T23:12:49.115Z,3.90
2017-08-27T23:15:16.633Z,3.80
2017-08-27T23:17:44.158Z,4.30
2017-08-27T23:20:11.683Z,6.62
2017-08-27T23:22:39.186Z,4.95
2017-08-27T23:25:06.806Z,3.35
2017-08-27T23:27:34.336Z,3.72
2017-08-27T23:30:01.842Z,3.70
2017-08-27T23:32:29.325Z,3.58
2017-08-27T23:34:56.855Z,3.95
2017-08-27T23:37:24.348Z,3.20
2017-08-27T23:39:51.884Z,3.80
2017-08-27T23:42:19.436Z,3.75
2017-08-27T23:44:46.935Z,4.00
2017-08-27T23:47:14.441Z,3.83
2017-08-27T23:49:41.925Z,3.92
2017-08-27T23:52:09.426Z,3.33
2017-08-27T23:54:36.942Z,4.00
2017-08-27T23:57:04.452Z,8.18
2017-08-27T23:59:31.945Z,5.87
